createdAt,value
2019-05-21T00:00:09.995Z,7.45
2019-05-21T00:02:38.539Z,8.55
2019-05-21T00:05:07.631Z,6.97
2019-05-21T00:07:36.451Z,7.55
2019-05-21T00:10:06.547Z,6.58
2019-05-21T00:12:35.366Z,4.83
2019-05-21T00:15:04.365Z,5.35
2019-05-21T00:17:32.839Z,5.47
2019-05-21T00:20:01.643Z,6.05
2019-05-21T00:22:30.464Z,6.50
2019-05-21T00:24:59.396Z,5.03
2019-05-21T00:27:27.982Z,5.30
2019-05-21T00:30:32.671Z,5.95
2019-05-21T00:33:37.647Z,6.17
2019-05-21T00:36:44.623Z,7.93
2019-05-21T00:39:49.935Z,7.67
2019-05-21T00:42:27.640Z,7.55
2019-05-21T00:44:56.116Z,8.65
2019-05-21T00:47:24.571Z,8.53
2019-05-21T00:49:53.395Z,9.43
2019-05-21T00:52:22.187Z,9.95
2019-05-21T00:54:50.663Z,8.83
2019-05-21T00:57:19.472Z,8.28
2019-05-21T00:59:48.026Z,9.30
2019-05-21T01:02:16.875Z,8.58
2019-05-21T01:04:59.766Z,7.78
2019-05-21T01:07:15.551Z,8.75
2019-05-21T01:09:44.102Z,6.22
2019-05-21T01:12:12.943Z,6.92
2019-05-21T01:14:41.418Z,5.83
2019-05-21T01:17:09.947Z,4.90
2019-05-21T01:19:38.420Z,6.45
2019-05-21T01:22:07.197Z,6.40
2019-05-21T01:24:35.747Z,5.60
2019-05-21T01:27:04.476Z,6.55
2019-05-21T01:29:32.952Z,7.75
2019-05-21T01:32:01.752Z,9.40
2019-05-21T01:34:30.388Z,7.97
2019-05-21T01:36:59.343Z,8.80
2019-05-21T01:39:27.892Z,9.08
2019-05-21T01:41:56.615Z,8.33
2019-05-21T01:44:25.090Z,8.95
2019-05-21T01:46:53.619Z,9.35
2019-05-21T01:49:22.100Z,8.88
2019-05-21T01:51:50.630Z,8.73
2019-05-21T01:54:19.159Z,9.03
2019-05-21T01:56:47.635Z,8.15
2019-05-21T01:59:16.095Z,8.85
2019-05-21T02:01:44.929Z,8.03
2019-05-21T02:04:13.458Z,9.85
2019-05-21T02:06:42.291Z,9.90
2019-05-21T02:09:10.753Z,9.98
2019-05-21T02:11:39.304Z,9.50
2019-05-21T02:14:07.763Z,11.73
2019-05-21T02:16:36.778Z,12.93
2019-05-21T02:19:05.955Z,14.30
2019-05-21T02:21:34.679Z,12.88
2019-05-21T02:24:03.169Z,14.33
2019-05-21T02:26:31.703Z,15.05
2019-05-21T02:29:00.168Z,14.47
2019-05-21T02:31:28.998Z,13.22
2019-05-21T02:33:57.897Z,11.28
2019-05-21T02:36:26.444Z,13.93
2019-05-21T02:38:54.981Z,10.95
2019-05-21T02:41:23.860Z,12.45
2019-05-21T02:43:52.386Z,13.20
2019-05-21T02:46:21.254Z,10.85
2019-05-21T02:48:49.788Z,10.28
2019-05-21T02:51:18.735Z,10.13
2019-05-21T02:53:47.448Z,7.92
2019-05-21T02:56:15.919Z,8.75
2019-05-21T02:58:44.797Z,8.15
2019-05-21T03:01:17.735Z,8.25
2019-05-21T03:03:45.575Z,9.50
2019-05-21T03:06:15.016Z,7.45
2019-05-21T03:08:43.858Z,10.00
2019-05-21T03:11:12.756Z,7.22
2019-05-21T03:13:41.222Z,9.65
2019-05-21T03:16:09.760Z,7.65
2019-05-21T03:18:38.520Z,8.83
2019-05-21T03:21:06.997Z,10.35
2019-05-21T03:23:35.799Z,9.35
2019-05-21T03:26:04.693Z,11.12
2019-05-21T03:28:33.225Z,9.03
2019-05-21T03:31:02.097Z,10.78
2019-05-21T03:33:30.630Z,11.80
2019-05-21T03:35:59.160Z,11.45
2019-05-21T03:38:27.759Z,13.45
2019-05-21T03:40:56.240Z,14.30
2019-05-21T03:43:25.022Z,11.83
2019-05-21T03:45:53.479Z,10.93
2019-05-21T03:48:22.399Z,9.58
2019-05-21T03:50:51.023Z,10.48
2019-05-21T03:53:19.500Z,9.35
2019-05-21T03:55:48.260Z,8.80
2019-05-21T03:58:17.169Z,8.15
2019-05-21T04:00:45.700Z,8.85
2019-05-21T04:03:14.237Z,8.85
2019-05-21T04:05:43.025Z,9.05
2019-05-21T04:08:11.568Z,9.78
2019-05-21T04:10:40.414Z,11.57
2019-05-21T04:13:09.309Z,8.88
2019-05-21T04:15:41.269Z,9.15
2019-05-21T04:18:14.772Z,8.65
2019-05-21T04:20:44.423Z,8.90
2019-05-21T04:23:13.073Z,8.40
2019-05-21T04:25:41.535Z,8.35
2019-05-21T04:28:10.008Z,8.25
2019-05-21T04:30:38.735Z,7.10
2019-05-21T04:33:07.295Z,7.37
2019-05-21T04:35:35.839Z,7.60
2019-05-21T04:38:04.711Z,5.00
2019-05-21T04:40:33.489Z,7.08
2019-05-21T04:43:02.677Z,8.30
2019-05-21T04:45:31.692Z,8.80
2019-05-21T04:48:00.237Z,9.90
2019-05-21T04:50:29.084Z,7.58
2019-05-21T04:52:57.977Z,8.28
2019-05-21T04:55:26.499Z,8.28
2019-05-21T04:57:55.248Z,9.85
2019-05-21T05:00:24.047Z,10.53
2019-05-21T05:02:52.943Z,9.33
2019-05-21T05:05:21.880Z,10.98
2019-05-21T05:07:50.459Z,13.65
2019-05-21T05:10:19.320Z,13.53
2019-05-21T05:12:47.795Z,14.10
2019-05-21T05:15:16.697Z,12.53
2019-05-21T05:17:45.174Z,12.75
2019-05-21T05:20:14.278Z,12.73
2019-05-21T05:22:43.179Z,14.18
2019-05-21T05:25:12.571Z,13.83
2019-05-21T05:27:41.051Z,13.68
2019-05-21T05:30:10.152Z,15.90
2019-05-21T05:32:38.679Z,13.60
2019-05-21T05:35:08.060Z,14.75
2019-05-21T05:37:44.209Z,15.70
2019-05-21T05:40:08.806Z,15.18
2019-05-21T05:42:37.574Z,16.20
2019-05-21T05:45:08.647Z,14.98
2019-05-21T05:47:37.459Z,17.67
2019-05-21T05:50:08.119Z,18.42
2019-05-21T05:52:36.580Z,17.65
2019-05-21T05:55:07.311Z,16.05
2019-05-21T05:57:35.776Z,15.28
2019-05-21T06:00:06.420Z,13.45
2019-05-21T06:02:34.882Z,12.50
2019-05-21T06:05:04.635Z,13.62
2019-05-21T06:07:33.095Z,12.13
2019-05-21T06:10:01.588Z,14.65
2019-05-21T06:12:30.108Z,12.03
2019-05-21T06:14:58.664Z,12.82
2019-05-21T06:17:27.122Z,12.85
2019-05-21T06:19:55.959Z,10.98
2019-05-21T06:22:24.677Z,12.85
2019-05-21T06:24:53.151Z,13.05
2019-05-21T06:27:21.613Z,12.47
2019-05-21T06:29:50.088Z,13.88
2019-05-21T06:32:18.904Z,12.53
2019-05-21T06:34:48.764Z,12.50
2019-05-21T06:37:17.426Z,12.55
2019-05-21T06:39:46.240Z,12.30
2019-05-21T06:42:14.703Z,14.50
2019-05-21T06:44:43.898Z,12.73
2019-05-21T06:47:31.758Z,11.97
2019-05-21T06:50:00.378Z,11.65
2019-05-21T06:52:28.841Z,12.95
2019-05-21T06:54:57.392Z,12.23
2019-05-21T06:57:27.235Z,10.58
2019-05-21T06:59:55.710Z,11.08
2019-05-21T07:02:24.167Z,9.20
2019-05-21T07:04:52.639Z,8.60
2019-05-21T07:07:21.436Z,8.28
2019-05-21T07:09:49.911Z,8.18
2019-05-21T07:12:18.628Z,7.60
2019-05-21T07:14:47.622Z,7.20
2019-05-21T07:17:16.076Z,7.40
2019-05-21T07:19:44.552Z,7.87
2019-05-21T07:22:13.573Z,7.35
2019-05-21T07:24:42.252Z,8.58
2019-05-21T07:27:11.072Z,9.78
2019-05-21T07:29:39.544Z,10.08
2019-05-21T07:32:08.343Z,9.88
2019-05-21T07:34:37.072Z,9.60
2019-05-21T07:37:06.031Z,9.53
2019-05-21T07:39:34.939Z,11.48
2019-05-21T07:42:03.728Z,11.73
2019-05-21T07:44:32.247Z,12.73
2019-05-21T07:47:01.050Z,13.28
2019-05-21T07:49:29.711Z,12.68
2019-05-21T07:51:58.183Z,13.32
2019-05-21T07:54:28.184Z,12.90
2019-05-21T07:56:56.930Z,11.43
2019-05-21T07:59:25.427Z,10.68
2019-05-21T08:01:54.275Z,9.85
2019-05-21T08:04:22.730Z,10.50
2019-05-21T08:06:51.211Z,11.48
2019-05-21T08:09:20.040Z,14.00
2019-05-21T08:11:48.609Z,13.75
2019-05-21T08:14:17.179Z,14.33
2019-05-21T08:16:45.762Z,14.10
2019-05-21T08:19:14.240Z,13.65
2019-05-21T08:21:42.717Z,14.00
2019-05-21T08:24:11.473Z,14.65
2019-05-21T08:26:40.279Z,13.93
2019-05-21T08:29:08.739Z,15.20
2019-05-21T08:31:37.296Z,14.55
2019-05-21T08:34:05.754Z,13.50
2019-05-21T08:36:34.228Z,12.75
2019-05-21T08:39:03.095Z,11.95
2019-05-21T08:41:31.658Z,12.15
2019-05-21T08:44:00.443Z,10.15
2019-05-21T08:46:29.267Z,11.80
2019-05-21T08:48:58.059Z,12.37
2019-05-21T08:51:26.856Z,11.43
2019-05-21T08:53:55.654Z,11.00
2019-05-21T08:56:24.555Z,11.70
2019-05-21T08:58:53.081Z,12.68
2019-05-21T09:01:22.255Z,13.18
2019-05-21T09:03:50.717Z,18.48
2019-05-21T09:06:19.203Z,19.85
2019-05-21T09:08:47.670Z,20.02
2019-05-21T09:11:16.218Z,21.68
2019-05-21T09:13:44.935Z,22.45
2019-05-21T09:16:13.490Z,22.48
2019-05-21T09:18:42.016Z,23.12
2019-05-21T09:21:10.488Z,23.80
2019-05-21T09:23:39.215Z,23.12
2019-05-21T09:26:07.685Z,25.75
2019-05-21T09:28:36.169Z,22.17
2019-05-21T09:31:04.704Z,20.80
2019-05-21T09:33:33.178Z,21.35
2019-05-21T09:36:01.644Z,23.30
2019-05-21T09:38:30.187Z,24.43
2019-05-21T09:40:58.687Z,24.90
2019-05-21T09:43:27.218Z,24.47
2019-05-21T09:45:56.117Z,26.25
2019-05-21T09:48:24.674Z,26.55
2019-05-21T09:50:53.494Z,26.60
2019-05-21T09:53:22.384Z,27.35
2019-05-21T09:55:50.991Z,28.17
2019-05-21T09:58:21.537Z,27.58
2019-05-21T10:01:09.780Z,32.38
2019-05-21T10:03:42.965Z,31.95
2019-05-21T10:06:13.974Z,29.77
2019-05-21T10:08:42.783Z,27.85
2019-05-21T10:11:11.264Z,28.87
2019-05-21T10:13:40.157Z,27.25
2019-05-21T10:16:08.685Z,25.40
2019-05-21T10:18:37.159Z,26.42
2019-05-21T10:21:05.695Z,26.93
2019-05-21T10:23:34.173Z,25.52
2019-05-21T10:26:02.699Z,23.73
2019-05-21T10:28:31.480Z,25.65
2019-05-21T10:31:00.624Z,26.27
2019-05-21T10:33:29.448Z,28.45
2019-05-21T10:35:58.263Z,27.42
2019-05-21T10:38:26.820Z,27.13
2019-05-21T10:40:55.639Z,28.25
2019-05-21T10:43:24.473Z,27.15
2019-05-21T10:45:53.039Z,26.00
2019-05-21T10:48:21.521Z,28.02
2019-05-21T10:50:50.068Z,27.25
2019-05-21T10:53:18.677Z,27.87
2019-05-21T10:55:47.156Z,31.23
2019-05-21T10:58:15.963Z,29.42
2019-05-21T11:00:45.865Z,27.35
2019-05-21T11:03:22.351Z,30.02
2019-05-21T11:06:08.869Z,28.77
2019-05-21T11:08:26.080Z,27.10
2019-05-21T11:10:54.535Z,26.50
2019-05-21T11:13:23.014Z,23.42
2019-05-21T11:15:51.545Z,23.35
2019-05-21T11:18:20.426Z,22.40
2019-05-21T11:20:49.220Z,21.95
2019-05-21T11:23:37.321Z,20.40
2019-05-21T11:26:06.151Z,21.42
2019-05-21T11:28:35.048Z,22.58
2019-05-21T11:31:03.513Z,19.35
2019-05-21T11:33:34.107Z,18.15
2019-05-21T11:36:02.687Z,19.67
2019-05-21T11:38:39.429Z,20.35
2019-05-21T11:41:01.701Z,20.02
2019-05-21T11:43:30.217Z,19.67
2019-05-21T11:45:58.838Z,17.95
2019-05-21T11:48:27.640Z,19.80
2019-05-21T11:50:56.184Z,20.05
2019-05-21T11:53:25.020Z,20.05
2019-05-21T11:55:53.812Z,15.60
2019-05-21T11:58:22.313Z,15.83
2019-05-21T12:00:51.111Z,15.60
2019-05-21T12:03:19.567Z,15.53
2019-05-21T12:05:48.373Z,14.33
2019-05-21T12:08:16.836Z,15.50
2019-05-21T12:10:46.197Z,16.20
2019-05-21T12:13:14.951Z,15.40
2019-05-21T12:15:43.512Z,14.43
2019-05-21T12:18:12.344Z,16.40
2019-05-21T12:20:41.227Z,18.12
2019-05-21T12:23:09.687Z,18.02
2019-05-21T12:25:38.193Z,16.23
2019-05-21T12:28:10.458Z,18.23
2019-05-21T12:30:37.225Z,15.90
2019-05-21T12:33:05.683Z,17.90
2019-05-21T12:35:34.326Z,17.82
2019-05-21T12:38:03.087Z,18.00
2019-05-21T12:40:31.578Z,17.87
2019-05-21T12:43:00.469Z,17.70
2019-05-21T12:45:29.198Z,18.45
2019-05-21T12:47:57.659Z,18.27
2019-05-21T12:50:26.647Z,17.95
2019-05-21T12:52:55.180Z,17.50
2019-05-21T12:55:24.025Z,16.67
2019-05-21T12:57:52.551Z,15.10
2019-05-21T13:00:22.767Z,14.18
2019-05-21T13:02:51.240Z,14.78
2019-05-21T13:05:19.887Z,16.05
2019-05-21T13:07:48.704Z,14.78
2019-05-21T13:10:17.603Z,12.35
2019-05-21T13:12:46.136Z,13.50
2019-05-21T13:15:14.683Z,12.43
2019-05-21T13:17:43.223Z,10.43
2019-05-21T13:20:12.379Z,9.20
2019-05-21T13:22:40.839Z,10.28
2019-05-21T13:25:09.724Z,9.33
2019-05-21T13:27:38.545Z,11.12
2019-05-21T13:30:08.872Z,10.72
2019-05-21T13:32:37.809Z,10.65
2019-05-21T13:35:07.931Z,10.43
2019-05-21T13:37:36.536Z,9.13
2019-05-21T13:40:10.019Z,7.92
2019-05-21T13:42:40.041Z,7.78
2019-05-21T13:45:09.212Z,7.10
2019-05-21T13:47:37.733Z,6.53
2019-05-21T13:50:08.522Z,5.60
2019-05-21T13:52:37.065Z,5.72
2019-05-21T13:55:06.723Z,6.53
2019-05-21T13:57:35.615Z,6.08
2019-05-21T14:00:07.709Z,5.70
2019-05-21T14:02:36.378Z,6.25
2019-05-21T14:05:05.745Z,5.65
2019-05-21T14:07:34.296Z,6.25
2019-05-21T14:10:14.452Z,6.30
2019-05-21T14:12:33.801Z,5.83
2019-05-21T14:15:02.513Z,4.78
2019-05-21T14:17:31.060Z,5.25
2019-05-21T14:19:59.863Z,5.55
2019-05-21T14:22:28.339Z,5.78
2019-05-21T14:24:57.148Z,4.83
2019-05-21T14:27:41.649Z,5.25
2019-05-21T14:29:55.792Z,5.08
2019-05-21T14:32:24.543Z,4.35
2019-05-21T14:35:01.311Z,4.20
2019-05-21T14:37:23.191Z,4.22
2019-05-21T14:39:51.650Z,3.92
2019-05-21T14:42:20.194Z,4.00
2019-05-21T14:44:48.648Z,4.67
2019-05-21T14:47:17.122Z,4.25
2019-05-21T14:49:45.991Z,4.30
2019-05-21T14:52:14.804Z,4.20
2019-05-21T14:54:43.314Z,4.17
2019-05-21T14:57:15.244Z,4.78
2019-05-21T14:59:43.695Z,4.22
2019-05-21T15:02:12.528Z,5.00
2019-05-21T15:04:41.163Z,7.15
2019-05-21T15:07:10.115Z,5.45
2019-05-21T15:09:38.640Z,6.10
2019-05-21T15:12:07.389Z,6.25
2019-05-21T15:14:36.185Z,6.30
2019-05-21T15:17:04.729Z,7.00
2019-05-21T15:19:33.191Z,7.00
2019-05-21T15:22:01.665Z,6.55
2019-05-21T15:24:33.331Z,7.80
2019-05-21T15:27:00.962Z,7.58
2019-05-21T15:29:29.497Z,7.22
2019-05-21T15:31:58.035Z,6.90
2019-05-21T15:34:26.491Z,7.45
2019-05-21T15:36:55.200Z,6.42
2019-05-21T15:39:23.675Z,7.40
2019-05-21T15:41:52.130Z,7.97
2019-05-21T15:44:20.985Z,6.85
2019-05-21T15:46:50.910Z,7.53
2019-05-21T15:49:35.116Z,7.78
2019-05-21T15:51:50.616Z,7.62
2019-05-21T15:54:19.428Z,7.37
2019-05-21T15:56:47.959Z,6.87
2019-05-21T15:59:16.438Z,7.60
2019-05-21T16:01:44.887Z,7.10
2019-05-21T16:04:16.383Z,7.35
2019-05-21T16:06:43.535Z,6.62
2019-05-21T16:09:12.447Z,6.37
2019-05-21T16:11:41.290Z,6.03
2019-05-21T16:14:10.180Z,5.87
2019-05-21T16:16:38.711Z,5.30
2019-05-21T16:19:07.179Z,6.00
2019-05-21T16:21:35.635Z,6.42
2019-05-21T16:24:04.523Z,5.78
2019-05-21T16:26:33.327Z,6.08
2019-05-21T16:29:01.800Z,6.10
2019-05-21T16:31:30.247Z,6.35
2019-05-21T16:33:59.096Z,6.47
2019-05-21T16:36:27.883Z,5.65
2019-05-21T16:38:56.795Z,5.62
2019-05-21T16:41:25.321Z,5.58
2019-05-21T16:43:54.175Z,5.55
2019-05-21T16:46:22.770Z,4.97
2019-05-21T16:48:51.635Z,5.60
2019-05-21T16:51:20.095Z,5.80
2019-05-21T16:53:48.924Z,5.00
2019-05-21T16:56:17.727Z,4.95
2019-05-21T16:58:46.206Z,5.60
2019-05-21T17:01:14.827Z,5.90
2019-05-21T17:03:43.303Z,5.92
2019-05-21T17:06:11.764Z,5.67
2019-05-21T17:08:40.540Z,5.42
2019-05-21T17:11:09.299Z,5.70
2019-05-21T17:13:37.842Z,5.58
2019-05-21T17:16:06.723Z,4.92
2019-05-21T17:18:35.457Z,5.55
2019-05-21T17:21:04.207Z,5.50
2019-05-21T17:23:32.675Z,5.00
2019-05-21T17:26:01.131Z,4.90
2019-05-21T17:28:29.979Z,5.33
2019-05-21T17:30:58.868Z,5.50
2019-05-21T17:33:27.332Z,6.15
2019-05-21T17:35:55.824Z,5.60
2019-05-21T17:38:24.770Z,5.40
2019-05-21T17:40:53.369Z,6.00
2019-05-21T17:43:22.229Z,5.90
2019-05-21T17:45:50.841Z,5.67
2019-05-21T17:48:19.298Z,5.22
2019-05-21T17:50:48.092Z,6.40
2019-05-21T17:53:16.893Z,5.72
2019-05-21T17:55:45.367Z,6.05
2019-05-21T17:58:13.963Z,6.03
2019-05-21T18:00:46.890Z,7.17
2019-05-21T18:03:15.487Z,7.25
2019-05-21T18:05:45.551Z,6.78
2019-05-21T18:08:16.976Z,6.97
2019-05-21T18:10:45.087Z,6.67
2019-05-21T18:13:13.718Z,7.80
2019-05-21T18:15:42.980Z,7.20
2019-05-21T18:18:11.431Z,6.35
2019-05-21T18:20:39.975Z,6.62
2019-05-21T18:23:08.747Z,6.65
2019-05-21T18:25:37.359Z,7.10
2019-05-21T18:28:06.379Z,7.12
2019-05-21T18:30:34.847Z,6.40
2019-05-21T18:33:03.671Z,6.70
2019-05-21T18:35:32.533Z,6.08
2019-05-21T18:38:01.395Z,6.58
2019-05-21T18:40:29.935Z,7.37
2019-05-21T18:42:58.386Z,6.75
2019-05-21T18:45:26.859Z,6.30
2019-05-21T18:47:55.324Z,6.87
2019-05-21T18:50:35.541Z,6.15
2019-05-21T18:52:54.035Z,6.35
2019-05-21T18:55:22.848Z,7.65
2019-05-21T18:57:51.315Z,6.50
2019-05-21T19:00:20.123Z,6.78
2019-05-21T19:02:48.583Z,6.45
2019-05-21T19:05:17.505Z,6.53
2019-05-21T19:07:45.963Z,6.33
2019-05-21T19:10:15.648Z,6.53
2019-05-21T19:12:44.340Z,7.95
2019-05-21T19:15:13.255Z,6.90
2019-05-21T19:17:42.613Z,6.75
2019-05-21T19:20:12.330Z,8.60
2019-05-21T19:22:41.212Z,7.00
2019-05-21T19:25:10.612Z,7.28
2019-05-21T19:27:39.420Z,6.47
2019-05-21T19:30:09.375Z,7.78
2019-05-21T19:32:38.000Z,8.53
2019-05-21T19:35:07.271Z,7.30
2019-05-21T19:37:36.107Z,7.20
2019-05-21T19:40:06.543Z,7.17
2019-05-21T19:42:35.327Z,7.05
2019-05-21T19:45:05.869Z,7.45
2019-05-21T19:47:34.651Z,7.08
2019-05-21T19:50:04.497Z,7.00
2019-05-21T19:52:32.974Z,8.50
2019-05-21T19:55:01.752Z,6.65
2019-05-21T19:57:30.886Z,6.83
2019-05-21T19:59:59.348Z,6.72
2019-05-21T20:02:29.799Z,6.40
2019-05-21T20:04:58.868Z,6.25
2019-05-21T20:07:27.779Z,5.90
2019-05-21T20:09:56.665Z,5.42
2019-05-21T20:12:26.276Z,5.03
2019-05-21T20:14:55.098Z,5.00
2019-05-21T20:17:24.611Z,4.42
2019-05-21T20:19:53.343Z,4.10
2019-05-21T20:22:21.880Z,5.12
2019-05-21T20:24:50.819Z,5.47
2019-05-21T20:27:19.551Z,5.03
2019-05-21T20:29:48.075Z,5.05
2019-05-21T20:32:17.535Z,5.12
2019-05-21T20:34:46.302Z,4.78
2019-05-21T20:37:16.491Z,6.17
2019-05-21T20:39:45.751Z,6.62
2019-05-21T20:42:17.754Z,8.68
2019-05-21T20:44:46.527Z,8.60
2019-05-21T20:47:18.179Z,7.55
2019-05-21T20:49:47.335Z,9.30
2019-05-21T20:52:18.819Z,10.20
2019-05-21T20:54:47.930Z,10.65
2019-05-21T20:57:17.751Z,11.28
2019-05-21T20:59:46.299Z,11.55
2019-05-21T21:02:16.231Z,11.43
2019-05-21T21:04:44.707Z,13.75
2019-05-21T21:07:13.236Z,14.65
2019-05-21T21:09:42.620Z,15.50
2019-05-21T21:12:11.960Z,16.75
2019-05-21T21:14:41.343Z,15.32
2019-05-21T21:17:11.871Z,15.98
2019-05-21T21:19:40.622Z,18.45
2019-05-21T21:22:09.079Z,16.77
2019-05-21T21:24:38.199Z,15.25
2019-05-21T21:27:07.900Z,16.60
2019-05-21T21:29:36.661Z,16.12
2019-05-21T21:32:05.291Z,16.35
2019-05-21T21:34:34.073Z,15.85
2019-05-21T21:37:03.943Z,15.72
2019-05-21T21:39:33.164Z,15.43
2019-05-21T21:42:02.436Z,15.35
2019-05-21T21:44:34.135Z,15.32
2019-05-21T21:47:01.720Z,15.38
2019-05-21T21:49:32.598Z,14.50
2019-05-21T21:52:01.055Z,15.85
2019-05-21T21:54:30.604Z,16.35
2019-05-21T21:56:59.059Z,14.03
2019-05-21T21:59:27.902Z,14.68
2019-05-21T22:02:16.349Z,14.80
2019-05-21T22:04:45.467Z,14.93
2019-05-21T22:07:15.308Z,14.53
2019-05-21T22:09:43.860Z,15.68
2019-05-21T22:12:14.224Z,15.45
2019-05-21T22:14:51.374Z,15.32
2019-05-21T22:17:15.086Z,14.43
2019-05-21T22:19:43.631Z,14.98
2019-05-21T22:22:12.423Z,17.05
2019-05-21T22:24:41.139Z,15.05
2019-05-21T22:27:09.747Z,15.40
2019-05-21T22:29:39.212Z,14.20
2019-05-21T22:32:07.667Z,15.75
2019-05-21T22:34:36.311Z,14.47
2019-05-21T22:37:06.803Z,15.15
2019-05-21T22:39:36.258Z,15.88
2019-05-21T22:42:04.951Z,14.70
2019-05-21T22:44:34.403Z,15.65
2019-05-21T22:47:03.211Z,14.15
2019-05-21T22:49:33.849Z,15.13
2019-05-21T22:52:01.879Z,14.35
2019-05-21T22:54:31.133Z,14.15
2019-05-21T22:56:59.595Z,14.80
2019-05-21T22:59:28.146Z,13.80
2019-05-21T23:01:58.907Z,12.53
2019-05-21T23:04:27.459Z,13.62
2019-05-21T23:06:56.151Z,13.32
2019-05-21T23:09:25.521Z,12.75
2019-05-21T23:11:54.423Z,13.85
2019-05-21T23:14:23.316Z,13.58
2019-05-21T23:16:51.792Z,13.45
2019-05-21T23:19:24.271Z,15.75
2019-05-21T23:21:53.497Z,13.78
2019-05-21T23:24:23.581Z,14.05
2019-05-21T23:26:53.816Z,15.48
2019-05-21T23:29:22.637Z,14.55
2019-05-21T23:31:51.183Z,14.53
2019-05-21T23:34:20.082Z,13.88
2019-05-21T23:36:49.600Z,15.15
2019-05-21T23:39:21.475Z,15.60
2019-05-21T23:41:50.367Z,15.72
2019-05-21T23:44:19.265Z,15.55
2019-05-21T23:46:48.271Z,15.32
2019-05-21T23:49:17.155Z,15.55
2019-05-21T23:51:45.632Z,15.03
2019-05-21T23:54:14.435Z,14.65
2019-05-21T23:56:43.539Z,15.32
2019-05-21T23:59:13.151Z,15.40
